Terminal Aerodrome Forecast
Issued by NWS

Home | Current Version | Previous Version | Text Only | Print | Product List | Glossary On
Versions: 1 2 3 4 5 6 7 8 9 10 11 12 13 14 15 16 17 18 19 20 21 22 23 24 25 26 27
000
FTUS45 KSLC 220129 AAB
TAFEVW
TAF AMD
KEVW 220129Z 2201/2224 32015KT 1SM -SN BR SCT005 BKN015
     FM220600 25010KT 4SM -SHSN SCT007 BKN025
     FM221200 23008KT P6SM VCSH SCT020 BKN040
     FM222100 25008KT 2SM -SN BR SCT007 BKN015=

USA.gov is the U.S. government's official web portal to all federal, state and local government web resources and services.